Simpsonville, Maryland
Current Conditions -  °F | °C
As of 12:30 AM on Wednesday 22 Oct 2014 (Local Time) from KFME Reporting Station
Overcast Overcast  
Wind Chill: 52°   Ceiling: 7000
Heat Index: 52°   Visibility: 7mi
Dew Point: 50°   Wind: 5mph
Humidity: 94%   Direction: 310°NW
Pressure: 29.91"   Gusts: NA
Location:  39.19°N, 76.88°W
Report Text: KFME 220430Z AUTO 31004KT 7SM SCT055 OVC070 11/10 A2991 RMK AO1
Loading
Personal Weather Stations






























Interactive Weather Map
Tropical Storm Tracking
New forecast layout! Learn more

10-Day Weather Forecast

Advertisements
Track Severe Weather on mobile